Time;durP1;ratioP1;P1;durP2;ratioP2;P2;SDS_P1;SDS_P2;PMS_P1;PMS_P2;Temp;Humidity;BMP_temperature;BMP_pressure;BME280_temperature;BME280_humidity;BME280_pressure;Samples;Min_cycle;Max_cycle;Signal;HPM_P1;HPM_P2
2022/04/28 00:00:00;;;;;;;10.4;6.8;;;;;;;8.8;100.0;102610;;;;
2022/04/28 00:01:00;;;;;;;10.4;6.8;;;;;;;8.8;100.0;102610;;;;
2022/04/28 00:02:00;;;;;;;10.4;6.8;;;;;;;8.9;100.0;102610;;;;
2022/04/28 00:03:00;;;;;;;10.4;6.8;;;;;;;8.9;100.0;102610;;;;
2022/04/28 00:04:00;;;;;;;10.4;6.8;;;;;;;8.7;100.0;102610;;;;
2022/04/28 00:05:00;;;;;;;10.4;6.8;;;;;;;8.7;100.0;102610;;;;
2022/04/28 00:06:00;;;;;;;10.4;6.8;;;;;;;8.8;100.0;102610;;;;
2022/04/28 00:07:00;;;;;;;10.4;6.8;;;;;;;8.8;100.0;102610;;;;
2022/04/28 00:08:00;;;;;;;10.4;6.8;;;;;;;8.8;100.0;102610;;;;
2022/04/28 00:09:00;;;;;;;10.6;6.9;;;;;;;8.8;100.0;102610;;;;
2022/04/28 00:10:00;;;;;;;10.6;6.9;;;;;;;8.8;100.0;102610;;;;
2022/04/28 00:11:00;;;;;;;10.6;6.9;;;;;;;8.8;100.0;102610;;;;
2022/04/28 00:12:00;;;;;;;10.6;6.9;;;;;;;8.9;100.0;102610;;;;
2022/04/28 00:13:00;;;;;;;10.6;6.9;;;;;;;8.9;100.0;102610;;;;
2022/04/28 00:14:00;;;;;;;10.6;6.9;;;;;;;8.9;100.0;102610;;;;
2022/04/28 00:15:00;;;;;;;10.6;6.9;;;;;;;8.9;100.0;102610;;;;
2022/04/28 00:16:00;;;;;;;10.6;6.9;;;;;;;8.9;100.0;102610;;;;
2022/04/28 00:17:00;;;;;;;10.6;6.9;;;;;;;8.9;100.0;102610;;;;
2022/04/28 00:18:00;;;;;;;10.6;6.9;;;;;;;8.9;100.0;102620;;;;
2022/04/28 00:19:00;;;;;;;10.6;6.9;;;;;;;8.9;100.0;102620;;;;
2022/04/28 00:20:00;;;;;;;10.6;6.9;;;;;;;8.9;100.0;102620;;;;
2022/04/28 00:21:00;;;;;;;10.6;6.9;;;;;;;8.9;100.0;102620;;;;
2022/04/28 00:22:00;;;;;;;10.6;6.9;;;;;;;8.9;100.0;102620;;;;
2022/04/28 00:23:00;;;;;;;10.6;6.9;;;;;;;8.9;100.0;102620;;;;
2022/04/28 00:24:00;;;;;;;10.6;6.9;;;;;;;8.8;100.0;102620;;;;
2022/04/28 00:25:00;;;;;;;10.6;6.9;;;;;;;8.8;100.0;102620;;;;
2022/04/28 00:26:00;;;;;;;10.6;6.9;;;;;;;8.8;100.0;102620;;;;
2022/04/28 00:27:00;;;;;;;10.6;6.9;;;;;;;8.8;100.0;102620;;;;
2022/04/28 00:28:00;;;;;;;10.6;6.9;;;;;;;8.8;100.0;102620;;;;
2022/04/28 00:29:00;;;;;;;11.3;7.1;;;;;;;8.8;100.0;102620;;;;
2022/04/28 00:30:00;;;;;;;11.3;7.1;;;;;;;8.8;100.0;102610;;;;
2022/04/28 00:31:00;;;;;;;11.3;7.1;;;;;;;8.8;100.0;102610;;;;
2022/04/28 00:32:00;;;;;;;11.3;7.1;;;;;;;8.8;100.0;102620;;;;
2022/04/28 00:33:00;;;;;;;11.3;7.1;;;;;;;8.8;100.0;102620;;;;
2022/04/28 00:34:00;;;;;;;11.3;7.1;;;;;;;8.6;100.0;102620;;;;
2022/04/28 00:35:00;;;;;;;11.3;7.1;;;;;;;8.6;100.0;102620;;;;
2022/04/28 00:36:00;;;;;;;11.3;7.1;;;;;;;8.8;100.0;102620;;;;
2022/04/28 00:37:00;;;;;;;11.3;7.1;;;;;;;8.8;100.0;102620;;;;
2022/04/28 00:38:00;;;;;;;11.3;7.1;;;;;;;8.7;100.0;102620;;;;
2022/04/28 00:39:00;;;;;;;11.3;7.1;;;;;;;8.7;100.0;102620;;;;
2022/04/28 00:40:01;;;;;;;11.3;7.1;;;;;;;8.6;100.0;102610;;;;
2022/04/28 00:41:00;;;;;;;11.3;7.1;;;;;;;8.6;100.0;102610;;;;
2022/04/28 00:42:00;;;;;;;11.3;7.1;;;;;;;8.6;100.0;102610;;;;
2022/04/28 00:44:00;;;;;;;11.3;7.1;;;;;;;8.4;100.0;102620;;;;
2022/04/28 00:45:00;;;;;;;11.3;7.1;;;;;;;8.4;100.0;102620;;;;
2022/04/28 00:46:00;;;;;;;11.3;7.1;;;;;;;8.5;100.0;102610;;;;
2022/04/28 00:47:00;;;;;;;11.3;7.1;;;;;;;8.5;100.0;102610;;;;
2022/04/28 00:51:01;;;;;;;10.7;7.2;;;;;;;8.6;100.0;102610;;;;
2022/04/28 00:52:07;;;;;;;10.7;7.2;;;;;;;8.5;100.0;102600;;;;
2022/04/28 00:53:00;;;;;;;10.7;7.2;;;;;;;8.5;100.0;102600;;;;
2022/04/28 00:54:01;;;;;;;10.7;7.2;;;;;;;8.5;100.0;102610;;;;
2022/04/28 00:55:00;;;;;;;10.7;7.2;;;;;;;8.5;100.0;102610;;;;
2022/04/28 00:56:00;;;;;;;10.7;7.2;;;;;;;8.4;100.0;102620;;;;
2022/04/28 00:57:00;;;;;;;10.7;7.2;;;;;;;8.4;100.0;102620;;;;
2022/04/28 00:58:00;;;;;;;10.7;7.2;;;;;;;8.5;100.0;102610;;;;
2022/04/28 00:59:02;;;;;;;10.7;7.2;;;;;;;8.5;100.0;102610;;;;
2022/04/28 01:00:00;;;;;;;10.7;7.2;;;;;;;8.3;100.0;102610;;;;
2022/04/28 01:01:00;;;;;;;10.7;7.2;;;;;;;8.3;100.0;102610;;;;
2022/04/28 01:02:01;;;;;;;10.7;7.2;;;;;;;8.2;100.0;102620;;;;
2022/04/28 01:03:00;;;;;;;10.7;7.2;;;;;;;8.2;100.0;102620;;;;
2022/04/28 01:04:01;;;;;;;10.7;7.2;;;;;;;8.1;100.0;102620;;;;
2022/04/28 01:05:00;;;;;;;10.7;7.2;;;;;;;8.1;100.0;102620;;;;
2022/04/28 01:06:01;;;;;;;10.7;7.2;;;;;;;8.3;100.0;102610;;;;
2022/04/28 01:07:00;;;;;;;10.7;7.2;;;;;;;8.3;100.0;102610;;;;
2022/04/28 01:08:00;;;;;;;10.7;7.2;;;;;;;8.2;100.0;102620;;;;
2022/04/28 01:09:00;;;;;;;9.1;7.3;;;;;;;8.2;100.0;102620;;;;
2022/04/28 01:10:00;;;;;;;9.1;7.3;;;;;;;8.1;100.0;102620;;;;
2022/04/28 01:11:01;;;;;;;9.1;7.3;;;;;;;8.1;100.0;102620;;;;
2022/04/28 01:12:00;;;;;;;9.1;7.3;;;;;;;7.9;100.0;102620;;;;
2022/04/28 01:13:00;;;;;;;9.1;7.3;;;;;;;7.9;100.0;102620;;;;
2022/04/28 01:14:00;;;;;;;9.1;7.3;;;;;;;7.9;100.0;102620;;;;
2022/04/28 01:15:00;;;;;;;9.1;7.3;;;;;;;7.9;100.0;102620;;;;
2022/04/28 01:16:00;;;;;;;9.1;7.3;;;;;;;8.0;100.0;102620;;;;
2022/04/28 01:17:01;;;;;;;9.1;7.3;;;;;;;8.0;100.0;102620;;;;
2022/04/28 01:18:00;;;;;;;9.1;7.3;;;;;;;8.0;100.0;102610;;;;
2022/04/28 01:19:00;;;;;;;9.1;7.3;;;;;;;8.0;100.0;102610;;;;
2022/04/28 01:20:00;;;;;;;9.1;7.3;;;;;;;8.0;100.0;102610;;;;
2022/04/28 01:21:01;;;;;;;9.1;7.3;;;;;;;8.0;100.0;102610;;;;
2022/04/28 01:22:00;;;;;;;9.1;7.3;;;;;;;8.0;100.0;102620;;;;
2022/04/28 01:23:00;;;;;;;9.1;7.3;;;;;;;8.0;100.0;102620;;;;
2022/04/28 01:24:01;;;;;;;9.1;7.3;;;;;;;8.0;100.0;102620;;;;
2022/04/28 01:25:07;;;;;;;9.1;7.3;;;;;;;8.0;100.0;102620;;;;
2022/04/28 01:26:00;;;;;;;9.1;7.3;;;;;;;7.9;100.0;102620;;;;
2022/04/28 01:27:01;;;;;;;9.1;7.3;;;;;;;7.9;100.0;102620;;;;
2022/04/28 01:28:00;;;;;;;9.1;7.3;;;;;;;7.9;100.0;102620;;;;
2022/04/28 01:29:00;;;;;;;9.4;7.9;;;;;;;7.9;100.0;102620;;;;
2022/04/28 01:30:00;;;;;;;9.4;7.9;;;;;;;8.0;100.0;102620;;;;
2022/04/28 01:31:00;;;;;;;9.4;7.9;;;;;;;8.0;100.0;102620;;;;
2022/04/28 01:32:01;;;;;;;9.4;7.9;;;;;;;7.9;100.0;102620;;;;
2022/04/28 01:33:00;;;;;;;9.4;7.9;;;;;;;7.9;100.0;102620;;;;
2022/04/28 01:34:00;;;;;;;9.4;7.9;;;;;;;7.8;100.0;102620;;;;
2022/04/28 01:35:00;;;;;;;9.4;7.9;;;;;;;7.8;100.0;102620;;;;
2022/04/28 01:36:00;;;;;;;9.4;7.9;;;;;;;7.9;100.0;102620;;;;
2022/04/28 01:37:00;;;;;;;9.4;7.9;;;;;;;7.9;100.0;102620;;;;
2022/04/28 01:38:00;;;;;;;9.4;7.9;;;;;;;7.8;100.0;102620;;;;
2022/04/28 01:39:00;;;;;;;9.4;7.9;;;;;;;7.8;100.0;102620;;;;
2022/04/28 01:40:00;;;;;;;9.4;7.9;;;;;;;7.9;100.0;102620;;;;
2022/04/28 01:41:00;;;;;;;9.4;7.9;;;;;;;7.9;100.0;102620;;;;
2022/04/28 01:42:00;;;;;;;9.4;7.9;;;;;;;7.8;100.0;102620;;;;
2022/04/28 01:43:00;;;;;;;9.4;7.9;;;;;;;7.8;100.0;102620;;;;
2022/04/28 01:44:01;;;;;;;9.4;7.9;;;;;;;7.8;100.0;102620;;;;
2022/04/28 01:45:00;;;;;;;9.4;7.9;;;;;;;7.8;100.0;102620;;;;
2022/04/28 01:46:01;;;;;;;9.4;7.9;;;;;;;7.8;100.0;102620;;;;
2022/04/28 01:47:00;;;;;;;9.4;7.9;;;;;;;7.8;100.0;102620;;;;
2022/04/28 01:48:00;;;;;;;9.4;7.9;;;;;;;7.6;100.0;102620;;;;
2022/04/28 01:49:00;;;;;;;10.3;8.6;;;;;;;7.6;100.0;102620;;;;
2022/04/28 01:50:00;;;;;;;10.3;8.6;;;;;;;7.5;100.0;102620;;;;
2022/04/28 01:55:00;;;;;;;10.3;8.6;;;;;;;7.7;100.0;102620;;;;
2022/04/28 01:56:00;;;;;;;10.3;8.6;;;;;;;7.6;100.0;102620;;;;
2022/04/28 01:57:00;;;;;;;10.3;8.6;;;;;;;7.6;100.0;102620;;;;
2022/04/28 01:58:00;;;;;;;10.3;8.6;;;;;;;7.5;100.0;102610;;;;
2022/04/28 01:59:00;;;;;;;10.3;8.6;;;;;;;7.5;100.0;102610;;;;
2022/04/28 02:00:00;;;;;;;10.3;8.6;;;;;;;7.4;100.0;102610;;;;
2022/04/28 02:01:00;;;;;;;10.3;8.6;;;;;;;7.4;100.0;102610;;;;
2022/04/28 02:02:00;;;;;;;10.3;8.6;;;;;;;7.3;100.0;102610;;;;
2022/04/28 02:03:00;;;;;;;10.3;8.6;;;;;;;7.3;100.0;102610;;;;
2022/04/28 02:04:00;;;;;;;10.3;8.6;;;;;;;7.2;100.0;102610;;;;
2022/04/28 02:05:01;;;;;;;10.3;8.6;;;;;;;7.2;100.0;102610;;;;
2022/04/28 02:06:00;;;;;;;10.3;8.6;;;;;;;7.3;100.0;102620;;;;
2022/04/28 02:07:00;;;;;;;10.3;8.6;;;;;;;7.3;100.0;102620;;;;
2022/04/28 02:08:00;;;;;;;10.3;8.6;;;;;;;7.3;100.0;102610;;;;
2022/04/28 02:09:00;;;;;;;11.5;9.1;;;;;;;7.3;100.0;102610;;;;
2022/04/28 02:10:00;;;;;;;11.5;9.1;;;;;;;7.4;100.0;102620;;;;
2022/04/28 02:11:00;;;;;;;11.5;9.1;;;;;;;7.4;100.0;102620;;;;
2022/04/28 02:12:00;;;;;;;11.5;9.1;;;;;;;7.3;100.0;102610;;;;
2022/04/28 02:13:00;;;;;;;11.5;9.1;;;;;;;7.3;100.0;102610;;;;
2022/04/28 02:14:00;;;;;;;11.5;9.1;;;;;;;7.2;100.0;102620;;;;
2022/04/28 02:15:00;;;;;;;11.5;9.1;;;;;;;7.2;100.0;102620;;;;
2022/04/28 02:16:00;;;;;;;11.5;9.1;;;;;;;7.2;100.0;102620;;;;
2022/04/28 02:17:01;;;;;;;11.5;9.1;;;;;;;7.2;100.0;102620;;;;
2022/04/28 02:18:00;;;;;;;11.5;9.1;;;;;;;6.9;100.0;102620;;;;
2022/04/28 02:19:00;;;;;;;11.5;9.1;;;;;;;6.9;100.0;102620;;;;
2022/04/28 02:20:04;;;;;;;11.5;9.1;;;;;;;6.9;100.0;102620;;;;
2022/04/28 02:21:00;;;;;;;11.5;9.1;;;;;;;6.9;100.0;102620;;;;
2022/04/28 02:22:00;;;;;;;11.5;9.1;;;;;;;6.9;100.0;102620;;;;
2022/04/28 02:23:00;;;;;;;11.5;9.1;;;;;;;6.9;100.0;102620;;;;
2022/04/28 02:24:00;;;;;;;11.5;9.1;;;;;;;7.0;100.0;102620;;;;
2022/04/28 02:25:04;;;;;;;11.5;9.1;;;;;;;7.0;100.0;102620;;;;
2022/04/28 02:26:00;;;;;;;11.5;9.1;;;;;;;6.9;100.0;102620;;;;
2022/04/28 02:27:00;;;;;;;11.5;9.1;;;;;;;6.9;100.0;102620;;;;
2022/04/28 02:28:00;;;;;;;11.5;9.1;;;;;;;7.1;100.0;102620;;;;
2022/04/28 02:29:00;;;;;;;13.0;9.2;;;;;;;7.1;100.0;102620;;;;
2022/04/28 02:30:00;;;;;;;13.0;9.2;;;;;;;6.9;100.0;102630;;;;
2022/04/28 02:31:00;;;;;;;13.0;9.2;;;;;;;6.9;100.0;102630;;;;
2022/04/28 02:32:00;;;;;;;13.0;9.2;;;;;;;6.9;100.0;102620;;;;
2022/04/28 02:34:00;;;;;;;13.0;9.2;;;;;;;6.9;100.0;102620;;;;
2022/04/28 02:35:00;;;;;;;13.0;9.2;;;;;;;6.9;100.0;102620;;;;
2022/04/28 02:36:00;;;;;;;13.0;9.2;;;;;;;6.9;100.0;102630;;;;
2022/04/28 02:37:01;;;;;;;13.0;9.2;;;;;;;6.9;100.0;102630;;;;
2022/04/28 02:38:00;;;;;;;13.0;9.2;;;;;;;7.0;100.0;102620;;;;
2022/04/28 02:39:00;;;;;;;13.0;9.2;;;;;;;7.0;100.0;102620;;;;
2022/04/28 02:40:00;;;;;;;13.0;9.2;;;;;;;6.9;100.0;102620;;;;
2022/04/28 02:41:00;;;;;;;13.0;9.2;;;;;;;6.9;100.0;102620;;;;
2022/04/28 02:42:00;;;;;;;13.0;9.2;;;;;;;6.8;100.0;102620;;;;
2022/04/28 02:43:00;;;;;;;13.0;9.2;;;;;;;6.8;100.0;102620;;;;
2022/04/28 02:44:00;;;;;;;13.0;9.2;;;;;;;6.8;100.0;102620;;;;
2022/04/28 02:45:00;;;;;;;13.0;9.2;;;;;;;6.8;100.0;102620;;;;
2022/04/28 02:46:00;;;;;;;13.0;9.2;;;;;;;6.8;100.0;102620;;;;
2022/04/28 02:47:00;;;;;;;13.0;9.2;;;;;;;6.8;100.0;102620;;;;
2022/04/28 02:48:00;;;;;;;13.0;9.2;;;;;;;6.8;100.0;102620;;;;
2022/04/28 02:49:00;;;;;;;10.9;9.0;;;;;;;6.8;100.0;102620;;;;
2022/04/28 02:50:00;;;;;;;10.9;9.0;;;;;;;6.8;100.0;102620;;;;
2022/04/28 02:51:00;;;;;;;10.9;9.0;;;;;;;6.8;100.0;102620;;;;
2022/04/28 02:52:00;;;;;;;10.9;9.0;;;;;;;6.8;100.0;102620;;;;
2022/04/28 02:53:00;;;;;;;10.9;9.0;;;;;;;6.8;100.0;102620;;;;
2022/04/28 02:54:00;;;;;;;10.9;9.0;;;;;;;6.8;100.0;102620;;;;
2022/04/28 02:55:00;;;;;;;10.9;9.0;;;;;;;6.8;100.0;102620;;;;
2022/04/28 02:56:00;;;;;;;10.9;9.0;;;;;;;6.8;100.0;102620;;;;
2022/04/28 02:57:00;;;;;;;10.9;9.0;;;;;;;6.8;100.0;102620;;;;
2022/04/28 02:58:01;;;;;;;10.9;9.0;;;;;;;6.8;100.0;102620;;;;
2022/04/28 02:59:00;;;;;;;10.9;9.0;;;;;;;6.8;100.0;102620;;;;
2022/04/28 03:00:02;;;;;;;10.9;9.0;;;;;;;6.7;100.0;102620;;;;
2022/04/28 03:01:00;;;;;;;10.9;9.0;;;;;;;6.7;100.0;102620;;;;
2022/04/28 03:02:00;;;;;;;10.9;9.0;;;;;;;6.7;100.0;102620;;;;
2022/04/28 03:03:00;;;;;;;10.9;9.0;;;;;;;6.7;100.0;102620;;;;
2022/04/28 03:04:00;;;;;;;10.9;9.0;;;;;;;6.6;100.0;102630;;;;
2022/04/28 03:05:03;;;;;;;10.9;9.0;;;;;;;6.6;100.0;102630;;;;
2022/04/28 03:11:00;;;;;;;15.7;10.2;;;;;;;6.7;100.0;102620;;;;
2022/04/28 03:12:00;;;;;;;15.7;10.2;;;;;;;6.7;100.0;102620;;;;
2022/04/28 03:13:00;;;;;;;15.7;10.2;;;;;;;6.7;100.0;102620;;;;
2022/04/28 03:14:00;;;;;;;15.7;10.2;;;;;;;6.6;100.0;102620;;;;
2022/04/28 03:15:00;;;;;;;15.7;10.2;;;;;;;6.6;100.0;102620;;;;
2022/04/28 03:16:00;;;;;;;15.7;10.2;;;;;;;6.6;100.0;102630;;;;
2022/04/28 03:17:00;;;;;;;15.7;10.2;;;;;;;6.6;100.0;102630;;;;
2022/04/28 03:18:00;;;;;;;15.7;10.2;;;;;;;6.6;100.0;102630;;;;
2022/04/28 03:19:00;;;;;;;15.7;10.2;;;;;;;6.6;100.0;102630;;;;
2022/04/28 03:20:00;;;;;;;15.7;10.2;;;;;;;6.6;100.0;102620;;;;
2022/04/28 03:21:00;;;;;;;15.7;10.2;;;;;;;6.6;100.0;102620;;;;
2022/04/28 03:22:00;;;;;;;15.7;10.2;;;;;;;6.6;100.0;102620;;;;
2022/04/28 03:23:00;;;;;;;15.7;10.2;;;;;;;6.6;100.0;102620;;;;
2022/04/28 03:24:01;;;;;;;15.7;10.2;;;;;;;6.5;100.0;102620;;;;
2022/04/28 03:25:00;;;;;;;15.7;10.2;;;;;;;6.5;100.0;102620;;;;
2022/04/28 03:26:00;;;;;;;15.7;10.2;;;;;;;6.5;100.0;102620;;;;
2022/04/28 03:27:00;;;;;;;15.7;10.2;;;;;;;6.5;100.0;102620;;;;
2022/04/28 03:28:00;;;;;;;13.8;10.6;;;;;;;6.4;100.0;102630;;;;
2022/04/28 03:29:00;;;;;;;13.8;10.6;;;;;;;6.4;100.0;102630;;;;
2022/04/28 03:30:00;;;;;;;13.8;10.6;;;;;;;6.4;100.0;102630;;;;
2022/04/28 03:31:01;;;;;;;13.8;10.6;;;;;;;6.4;100.0;102630;;;;
2022/04/28 03:32:00;;;;;;;13.8;10.6;;;;;;;6.4;100.0;102630;;;;
2022/04/28 03:33:00;;;;;;;13.8;10.6;;;;;;;6.4;100.0;102630;;;;
2022/04/28 03:34:00;;;;;;;13.8;10.6;;;;;;;6.5;100.0;102620;;;;
2022/04/28 03:35:00;;;;;;;13.8;10.6;;;;;;;6.5;100.0;102620;;;;
2022/04/28 03:36:00;;;;;;;13.8;10.6;;;;;;;6.4;100.0;102620;;;;
2022/04/28 03:37:00;;;;;;;13.8;10.6;;;;;;;6.4;100.0;102620;;;;
2022/04/28 03:38:01;;;;;;;13.8;10.6;;;;;;;6.4;100.0;102620;;;;
2022/04/28 03:39:00;;;;;;;13.8;10.6;;;;;;;6.4;100.0;102620;;;;
2022/04/28 03:40:00;;;;;;;13.8;10.6;;;;;;;6.4;100.0;102620;;;;
2022/04/28 03:41:00;;;;;;;13.8;10.6;;;;;;;6.4;100.0;102620;;;;
2022/04/28 03:42:00;;;;;;;13.8;10.6;;;;;;;6.3;100.0;102620;;;;
2022/04/28 03:43:00;;;;;;;13.8;10.6;;;;;;;6.3;100.0;102620;;;;
2022/04/28 03:44:00;;;;;;;13.8;10.6;;;;;;;6.3;100.0;102630;;;;
2022/04/28 03:45:00;;;;;;;13.8;10.6;;;;;;;6.3;100.0;102630;;;;
2022/04/28 03:46:00;;;;;;;13.8;10.6;;;;;;;6.3;100.0;102620;;;;
2022/04/28 03:47:00;;;;;;;13.8;10.6;;;;;;;6.3;100.0;102620;;;;
2022/04/28 03:48:00;;;;;;;14.9;10.3;;;;;;;6.3;100.0;102620;;;;
2022/04/28 03:49:00;;;;;;;14.9;10.3;;;;;;;6.3;100.0;102620;;;;
2022/04/28 03:50:00;;;;;;;14.9;10.3;;;;;;;6.3;100.0;102620;;;;
2022/04/28 03:51:00;;;;;;;14.9;10.3;;;;;;;6.3;100.0;102620;;;;
2022/04/28 03:52:00;;;;;;;14.9;10.3;;;;;;;6.3;100.0;102630;;;;
2022/04/28 03:53:00;;;;;;;14.9;10.3;;;;;;;6.3;100.0;102630;;;;
2022/04/28 03:54:00;;;;;;;14.9;10.3;;;;;;;6.2;100.0;102630;;;;
2022/04/28 03:55:00;;;;;;;14.9;10.3;;;;;;;6.2;100.0;102630;;;;
2022/04/28 03:56:00;;;;;;;14.9;10.3;;;;;;;6.3;100.0;102630;;;;
2022/04/28 03:57:00;;;;;;;14.9;10.3;;;;;;;6.3;100.0;102630;;;;
2022/04/28 03:58:00;;;;;;;14.9;10.3;;;;;;;6.2;100.0;102630;;;;
2022/04/28 03:59:01;;;;;;;14.9;10.3;;;;;;;6.2;100.0;102630;;;;
2022/04/28 04:00:00;;;;;;;14.9;10.3;;;;;;;6.3;100.0;102630;;;;
2022/04/28 04:01:00;;;;;;;14.9;10.3;;;;;;;6.3;100.0;102630;;;;
2022/04/28 04:02:00;;;;;;;14.9;10.3;;;;;;;6.3;100.0;102630;;;;
2022/04/28 04:03:01;;;;;;;14.9;10.3;;;;;;;6.3;100.0;102630;;;;
2022/04/28 04:04:00;;;;;;;14.9;10.3;;;;;;;6.3;100.0;102630;;;;
2022/04/28 04:05:00;;;;;;;14.9;10.3;;;;;;;6.3;100.0;102630;;;;
2022/04/28 04:06:00;;;;;;;14.9;10.3;;;;;;;6.3;100.0;102630;;;;
2022/04/28 04:07:00;;;;;;;14.9;10.3;;;;;;;6.3;100.0;102630;;;;
2022/04/28 04:08:00;;;;;;;14.1;10.3;;;;;;;6.1;100.0;102630;;;;
2022/04/28 04:09:00;;;;;;;14.1;10.3;;;;;;;6.1;100.0;102630;;;;
2022/04/28 04:10:00;;;;;;;14.1;10.3;;;;;;;6.3;100.0;102640;;;;
2022/04/28 04:11:00;;;;;;;14.1;10.3;;;;;;;6.3;100.0;102640;;;;
2022/04/28 04:12:00;;;;;;;14.1;10.3;;;;;;;6.2;100.0;102640;;;;
2022/04/28 04:13:00;;;;;;;14.1;10.3;;;;;;;6.2;100.0;102640;;;;
2022/04/28 04:14:00;;;;;;;14.1;10.3;;;;;;;6.2;100.0;102640;;;;
2022/04/28 04:15:00;;;;;;;14.1;10.3;;;;;;;6.2;100.0;102640;;;;
2022/04/28 04:16:00;;;;;;;14.1;10.3;;;;;;;6.1;100.0;102650;;;;
2022/04/28 04:17:00;;;;;;;14.1;10.3;;;;;;;6.1;100.0;102650;;;;
2022/04/28 04:18:00;;;;;;;14.1;10.3;;;;;;;6.2;100.0;102650;;;;
2022/04/28 04:19:00;;;;;;;14.1;10.3;;;;;;;6.2;100.0;102650;;;;
2022/04/28 04:20:00;;;;;;;14.1;10.3;;;;;;;6.1;100.0;102640;;;;
2022/04/28 04:21:00;;;;;;;14.1;10.3;;;;;;;6.1;100.0;102640;;;;
2022/04/28 04:22:00;;;;;;;14.1;10.3;;;;;;;6.1;100.0;102640;;;;
2022/04/28 04:23:01;;;;;;;14.1;10.3;;;;;;;6.1;100.0;102640;;;;
2022/04/28 04:24:00;;;;;;;14.1;10.3;;;;;;;6.1;100.0;102640;;;;
2022/04/28 04:25:01;;;;;;;14.1;10.3;;;;;;;6.1;100.0;102640;;;;
2022/04/28 04:26:01;;;;;;;14.1;10.3;;;;;;;6.1;100.0;102640;;;;
2022/04/28 04:27:00;;;;;;;14.1;10.3;;;;;;;6.1;100.0;102640;;;;
2022/04/28 04:28:00;;;;;;;13.9;10.5;;;;;;;6.0;100.0;102650;;;;
2022/04/28 04:29:00;;;;;;;13.9;10.5;;;;;;;6.0;100.0;102650;;;;
2022/04/28 04:30:00;;;;;;;13.9;10.5;;;;;;;5.9;100.0;102650;;;;
2022/04/28 04:33:00;;;;;;;13.9;10.5;;;;;;;6.0;100.0;102650;;;;
2022/04/28 04:34:00;;;;;;;13.9;10.5;;;;;;;6.0;100.0;102650;;;;
2022/04/28 04:35:00;;;;;;;13.9;10.5;;;;;;;6.0;100.0;102650;;;;
2022/04/28 04:36:00;;;;;;;13.9;10.5;;;;;;;6.0;100.0;102650;;;;
2022/04/28 04:37:00;;;;;;;13.9;10.5;;;;;;;6.0;100.0;102650;;;;
2022/04/28 04:38:00;;;;;;;13.9;10.5;;;;;;;5.9;100.0;102650;;;;
2022/04/28 04:39:00;;;;;;;13.9;10.5;;;;;;;5.9;100.0;102650;;;;
2022/04/28 04:40:00;;;;;;;13.9;10.5;;;;;;;5.9;100.0;102650;;;;
2022/04/28 04:41:00;;;;;;;13.9;10.5;;;;;;;5.9;100.0;102650;;;;
2022/04/28 04:42:00;;;;;;;13.9;10.5;;;;;;;5.8;100.0;102650;;;;
2022/04/28 04:43:00;;;;;;;13.9;10.5;;;;;;;5.8;100.0;102650;;;;
2022/04/28 04:44:00;;;;;;;13.9;10.5;;;;;;;5.8;100.0;102660;;;;
2022/04/28 04:45:00;;;;;;;13.9;10.5;;;;;;;5.8;100.0;102660;;;;
2022/04/28 04:46:00;;;;;;;13.9;10.5;;;;;;;5.8;100.0;102660;;;;
2022/04/28 04:47:00;;;;;;;13.9;10.5;;;;;;;5.8;100.0;102660;;;;
2022/04/28 04:48:00;;;;;;;19.0;11.4;;;;;;;5.9;100.0;102650;;;;
2022/04/28 04:49:00;;;;;;;19.0;11.4;;;;;;;5.9;100.0;102650;;;;
2022/04/28 04:50:00;;;;;;;19.0;11.4;;;;;;;5.9;100.0;102660;;;;
2022/04/28 04:51:00;;;;;;;19.0;11.4;;;;;;;5.9;100.0;102660;;;;
2022/04/28 04:52:01;;;;;;;19.0;11.4;;;;;;;5.9;100.0;102660;;;;
2022/04/28 04:53:00;;;;;;;19.0;11.4;;;;;;;5.9;100.0;102660;;;;
2022/04/28 04:54:00;;;;;;;19.0;11.4;;;;;;;5.9;100.0;102660;;;;
2022/04/28 04:55:00;;;;;;;19.0;11.4;;;;;;;5.9;100.0;102660;;;;
2022/04/28 04:56:00;;;;;;;19.0;11.4;;;;;;;5.9;100.0;102670;;;;
2022/04/28 04:57:00;;;;;;;19.0;11.4;;;;;;;5.9;100.0;102670;;;;
2022/04/28 04:58:00;;;;;;;19.0;11.4;;;;;;;5.9;100.0;102670;;;;
2022/04/28 04:59:00;;;;;;;19.0;11.4;;;;;;;5.9;100.0;102670;;;;
2022/04/28 05:00:02;;;;;;;19.0;11.4;;;;;;;5.9;100.0;102680;;;;
2022/04/28 05:01:01;;;;;;;19.0;11.4;;;;;;;5.9;100.0;102680;;;;
2022/04/28 05:02:00;;;;;;;19.0;11.4;;;;;;;5.9;100.0;102680;;;;
2022/04/28 05:03:00;;;;;;;19.0;11.4;;;;;;;5.9;100.0;102680;;;;
2022/04/28 05:04:00;;;;;;;19.0;11.4;;;;;;;5.9;100.0;102680;;;;
2022/04/28 05:05:00;;;;;;;19.0;11.4;;;;;;;5.9;100.0;102680;;;;
2022/04/28 05:06:00;;;;;;;19.0;11.4;;;;;;;6.0;100.0;102680;;;;
2022/04/28 05:07:00;;;;;;;19.0;11.4;;;;;;;6.0;100.0;102680;;;;
2022/04/28 05:08:00;;;;;;;22.0;15.0;;;;;;;6.1;100.0;102690;;;;
2022/04/28 05:09:00;;;;;;;22.0;15.0;;;;;;;6.1;100.0;102690;;;;
2022/04/28 05:10:00;;;;;;;22.0;15.0;;;;;;;6.1;100.0;102680;;;;
2022/04/28 05:11:00;;;;;;;22.0;15.0;;;;;;;6.1;100.0;102680;;;;
2022/04/28 05:12:00;;;;;;;22.0;15.0;;;;;;;6.0;100.0;102680;;;;
2022/04/28 05:13:00;;;;;;;22.0;15.0;;;;;;;6.0;100.0;102680;;;;
2022/04/28 05:14:00;;;;;;;22.0;15.0;;;;;;;6.1;100.0;102690;;;;
2022/04/28 05:15:00;;;;;;;22.0;15.0;;;;;;;6.1;100.0;102690;;;;
2022/04/28 05:16:00;;;;;;;22.0;15.0;;;;;;;6.1;100.0;102690;;;;
2022/04/28 05:17:00;;;;;;;22.0;15.0;;;;;;;6.1;100.0;102690;;;;
2022/04/28 05:18:01;;;;;;;22.0;15.0;;;;;;;6.1;100.0;102690;;;;
2022/04/28 05:19:00;;;;;;;22.0;15.0;;;;;;;6.1;100.0;102690;;;;
2022/04/28 05:20:00;;;;;;;22.0;15.0;;;;;;;6.1;100.0;102690;;;;
2022/04/28 05:21:00;;;;;;;22.0;15.0;;;;;;;6.1;100.0;102690;;;;
2022/04/28 05:22:00;;;;;;;22.0;15.0;;;;;;;6.1;100.0;102690;;;;
2022/04/28 05:23:00;;;;;;;22.0;15.0;;;;;;;6.1;100.0;102690;;;;
2022/04/28 05:24:00;;;;;;;22.0;15.0;;;;;;;6.1;100.0;102690;;;;
2022/04/28 05:25:00;;;;;;;22.0;15.0;;;;;;;6.1;100.0;102690;;;;
2022/04/28 05:26:00;;;;;;;22.0;15.0;;;;;;;6.2;100.0;102700;;;;
2022/04/28 05:27:00;;;;;;;22.0;15.0;;;;;;;6.2;100.0;102700;;;;
2022/04/28 05:28:00;;;;;;;18.5;13.6;;;;;;;6.2;100.0;102690;;;;
2022/04/28 05:29:00;;;;;;;18.5;13.6;;;;;;;6.2;100.0;102690;;;;
2022/04/28 05:30:00;;;;;;;18.5;13.6;;;;;;;6.3;100.0;102690;;;;
2022/04/28 05:31:00;;;;;;;18.5;13.6;;;;;;;6.3;100.0;102690;;;;
2022/04/28 05:32:00;;;;;;;18.5;13.6;;;;;;;6.3;100.0;102700;;;;
2022/04/28 05:33:00;;;;;;;18.5;13.6;;;;;;;6.3;100.0;102700;;;;
2022/04/28 05:34:00;;;;;;;18.5;13.6;;;;;;;6.3;100.0;102700;;;;
2022/04/28 05:35:00;;;;;;;18.5;13.6;;;;;;;6.3;100.0;102700;;;;
2022/04/28 05:36:00;;;;;;;18.5;13.6;;;;;;;6.3;100.0;102700;;;;
2022/04/28 05:37:00;;;;;;;18.5;13.6;;;;;;;6.3;100.0;102700;;;;
2022/04/28 05:38:00;;;;;;;18.5;13.6;;;;;;;6.3;100.0;102710;;;;
2022/04/28 05:39:00;;;;;;;18.5;13.6;;;;;;;6.3;100.0;102710;;;;
2022/04/28 05:40:00;;;;;;;18.5;13.6;;;;;;;6.4;100.0;102710;;;;
2022/04/28 05:41:00;;;;;;;18.5;13.6;;;;;;;6.4;100.0;102710;;;;
2022/04/28 05:42:00;;;;;;;18.5;13.6;;;;;;;6.4;100.0;102710;;;;
2022/04/28 05:46:00;;;;;;;18.5;13.6;;;;;;;6.5;100.0;102710;;;;
2022/04/28 05:47:00;;;;;;;18.5;13.6;;;;;;;6.5;100.0;102710;;;;
2022/04/28 05:48:00;;;;;;;20.1;14.4;;;;;;;6.6;100.0;102710;;;;
2022/04/28 05:49:00;;;;;;;20.1;14.4;;;;;;;6.6;100.0;102710;;;;
2022/04/28 05:50:01;;;;;;;20.1;14.4;;;;;;;6.5;100.0;102720;;;;
2022/04/28 05:51:00;;;;;;;20.1;14.4;;;;;;;6.5;100.0;102720;;;;
2022/04/28 05:52:01;;;;;;;20.1;14.4;;;;;;;6.6;100.0;102720;;;;
2022/04/28 05:53:00;;;;;;;20.1;14.4;;;;;;;6.6;100.0;102720;;;;
2022/04/28 05:54:00;;;;;;;20.1;14.4;;;;;;;6.7;100.0;102720;;;;
2022/04/28 05:55:00;;;;;;;20.1;14.4;;;;;;;6.7;100.0;102720;;;;
2022/04/28 05:56:00;;;;;;;20.1;14.4;;;;;;;6.8;100.0;102720;;;;
2022/04/28 05:57:00;;;;;;;20.1;14.4;;;;;;;6.8;100.0;102720;;;;
2022/04/28 05:58:00;;;;;;;20.1;14.4;;;;;;;6.8;100.0;102720;;;;
2022/04/28 05:59:00;;;;;;;20.1;14.4;;;;;;;6.8;100.0;102720;;;;
2022/04/28 06:00:00;;;;;;;20.1;14.4;;;;;;;6.9;100.0;102720;;;;
2022/04/28 06:01:00;;;;;;;20.1;14.4;;;;;;;6.9;100.0;102720;;;;
2022/04/28 06:02:02;;;;;;;20.1;14.4;;;;;;;7.0;100.0;102730;;;;
2022/04/28 06:03:00;;;;;;;20.1;14.4;;;;;;;7.0;100.0;102730;;;;
2022/04/28 06:04:00;;;;;;;20.1;14.4;;;;;;;7.0;100.0;102730;;;;
2022/04/28 06:05:00;;;;;;;20.1;14.4;;;;;;;7.0;100.0;102730;;;;
2022/04/28 06:06:00;;;;;;;20.1;14.4;;;;;;;7.1;100.0;102730;;;;
2022/04/28 06:07:00;;;;;;;20.1;14.4;;;;;;;7.1;100.0;102730;;;;
2022/04/28 06:08:00;;;;;;;19.1;14.4;;;;;;;7.2;100.0;102730;;;;
2022/04/28 06:09:00;;;;;;;19.1;14.4;;;;;;;7.2;100.0;102730;;;;
2022/04/28 06:10:00;;;;;;;19.1;14.4;;;;;;;7.2;100.0;102730;;;;
2022/04/28 06:11:01;;;;;;;19.1;14.4;;;;;;;7.2;100.0;102730;;;;
2022/04/28 06:12:00;;;;;;;19.1;14.4;;;;;;;7.3;100.0;102730;;;;
2022/04/28 06:13:00;;;;;;;19.1;14.4;;;;;;;7.3;100.0;102730;;;;
2022/04/28 06:14:00;;;;;;;19.1;14.4;;;;;;;7.4;100.0;102730;;;;
2022/04/28 06:15:00;;;;;;;19.1;14.4;;;;;;;7.4;100.0;102730;;;;
2022/04/28 06:16:00;;;;;;;19.1;14.4;;;;;;;7.4;100.0;102730;;;;
2022/04/28 06:17:01;;;;;;;19.1;14.4;;;;;;;7.4;100.0;102730;;;;
2022/04/28 06:18:00;;;;;;;19.1;14.4;;;;;;;7.5;100.0;102730;;;;
2022/04/28 06:19:00;;;;;;;19.1;14.4;;;;;;;7.5;100.0;102730;;;;
2022/04/28 06:20:10;;;;;;;19.1;14.4;;;;;;;7.4;100.0;102730;;;;
2022/04/28 06:21:00;;;;;;;19.1;14.4;;;;;;;7.4;100.0;102730;;;;
2022/04/28 06:22:00;;;;;;;19.1;14.4;;;;;;;7.3;100.0;102740;;;;
2022/04/28 06:23:00;;;;;;;19.1;14.4;;;;;;;7.3;100.0;102740;;;;
2022/04/28 06:24:00;;;;;;;19.1;14.4;;;;;;;7.4;100.0;102740;;;;
2022/04/28 06:25:00;;;;;;;19.1;14.4;;;;;;;7.4;100.0;102740;;;;
2022/04/28 06:26:01;;;;;;;19.1;14.4;;;;;;;7.6;100.0;102750;;;;
2022/04/28 06:27:00;;;;;;;19.1;14.4;;;;;;;7.6;100.0;102750;;;;
2022/04/28 06:28:00;;;;;;;20.6;13.8;;;;;;;7.6;100.0;102750;;;;
2022/04/28 06:29:03;;;;;;;20.6;13.8;;;;;;;7.6;100.0;102750;;;;
2022/04/28 06:30:00;;;;;;;20.6;13.8;;;;;;;7.8;100.0;102750;;;;
2022/04/28 06:31:00;;;;;;;20.6;13.8;;;;;;;7.8;100.0;102750;;;;
2022/04/28 06:32:00;;;;;;;20.6;13.8;;;;;;;7.8;100.0;102760;;;;
2022/04/28 06:33:00;;;;;;;20.6;13.8;;;;;;;7.8;100.0;102760;;;;
2022/04/28 06:34:00;;;;;;;20.6;13.8;;;;;;;7.9;100.0;102760;;;;
2022/04/28 06:35:00;;;;;;;20.6;13.8;;;;;;;7.9;100.0;102760;;;;
2022/04/28 06:36:00;;;;;;;20.6;13.8;;;;;;;8.0;100.0;102760;;;;
2022/04/28 06:37:00;;;;;;;20.6;13.8;;;;;;;8.0;100.0;102760;;;;
2022/04/28 06:38:00;;;;;;;20.6;13.8;;;;;;;8.2;100.0;102760;;;;
2022/04/28 06:39:02;;;;;;;20.6;13.8;;;;;;;8.2;100.0;102760;;;;